createdAt,value
2019-05-09T00:02:33.879Z,81.90
2019-05-09T00:05:04.546Z,81.86
2019-05-09T00:07:35.036Z,81.91
2019-05-09T00:10:07.008Z,81.92
2019-05-09T00:12:37.654Z,81.93
2019-05-09T00:15:09.100Z,81.99
2019-05-09T00:17:39.736Z,82.07
2019-05-09T00:20:16.608Z,82.05
2019-05-09T00:22:47.186Z,81.96
2019-05-09T00:25:17.693Z,81.96
2019-05-09T00:27:48.248Z,81.97
2019-05-09T00:30:22.671Z,82.03
2019-05-09T00:32:53.438Z,82.08
2019-05-09T00:35:30.032Z,82.07
2019-05-09T00:38:05.366Z,82.09
2019-05-09T00:40:35.871Z,82.12
2019-05-09T00:43:06.999Z,82.04
2019-05-09T00:46:04.073Z,81.85
2019-05-09T00:48:43.969Z,81.69
2019-05-09T00:51:14.530Z,81.54
2019-05-09T00:53:44.957Z,81.42
2019-05-09T00:58:44.390Z,81.29
2019-05-09T01:01:15.359Z,81.25
2019-05-09T01:03:45.969Z,81.29
2019-05-09T01:06:16.519Z,81.24
2019-05-09T01:08:47.032Z,81.24
2019-05-09T01:11:17.547Z,81.29
2019-05-09T01:13:48.580Z,81.31
2019-05-09T01:16:19.639Z,81.44
2019-05-09T01:18:50.288Z,81.58
2019-05-09T01:21:21.232Z,81.74
2019-05-09T01:23:53.977Z,81.82
2019-05-09T01:28:47.699Z,81.98
2019-05-09T01:31:18.594Z,81.96
2019-05-09T01:34:00.318Z,81.92
2019-05-09T01:37:05.070Z,81.85
2019-05-09T01:39:36.753Z,81.82
2019-05-09T01:42:07.812Z,81.89
2019-05-09T01:44:38.595Z,81.99
2019-05-09T01:49:49.683Z,82.18
2019-05-09T01:52:20.291Z,82.28
2019-05-09T01:54:50.810Z,82.39
2019-05-09T01:57:23.277Z,82.43
2019-05-09T01:59:53.509Z,82.40
2019-05-09T02:02:24.220Z,82.36
2019-05-09T02:04:54.872Z,82.45
2019-05-09T02:07:25.398Z,82.57
2019-05-09T02:09:55.929Z,82.52
2019-05-09T02:12:33.781Z,82.68
2019-05-09T02:15:18.058Z,82.65
2019-05-09T02:18:08.376Z,82.77
2019-05-09T02:20:38.918Z,82.80
2019-05-09T02:23:09.727Z,82.95
2019-05-09T02:25:40.413Z,83.07
2019-05-09T02:28:11.111Z,82.99
2019-05-09T02:30:44.925Z,83.03
2019-05-09T02:33:14.752Z,83.15
2019-05-09T02:35:52.829Z,83.14
2019-05-09T02:38:19.946Z,83.20
2019-05-09T02:40:50.143Z,83.40
2019-05-09T02:43:20.932Z,83.43
2019-05-09T02:46:13.303Z,83.52
2019-05-09T02:48:44.279Z,83.59
2019-05-09T02:51:18.175Z,83.73
2019-05-09T02:53:48.561Z,83.81
2019-05-09T02:56:19.474Z,83.72
2019-05-09T02:59:00.451Z,83.83
2019-05-09T03:01:44.182Z,83.89
2019-05-09T03:04:14.956Z,83.88
2019-05-09T03:06:48.895Z,83.96
2019-05-09T03:09:18.961Z,84.03
2019-05-09T03:11:49.920Z,84.09
2019-05-09T03:14:20.762Z,84.19
2019-05-09T03:16:51.429Z,84.30
2019-05-09T03:19:21.964Z,84.33
2019-05-09T03:21:58.433Z,84.44
2019-05-09T03:24:29.392Z,84.50
2019-05-09T03:27:04.324Z,84.50
2019-05-09T03:29:39.852Z,84.53
2019-05-09T03:32:10.498Z,84.59
2019-05-09T03:34:41.040Z,84.57
2019-05-09T03:37:11.888Z,84.56
2019-05-09T03:42:39.682Z,84.78
2019-05-09T03:44:58.199Z,84.79
2019-05-09T03:47:34.378Z,84.79
2019-05-09T03:50:09.708Z,84.82
2019-05-09T03:52:40.370Z,84.85
2019-05-09T03:55:13.456Z,84.78
2019-05-09T03:57:49.227Z,84.79
2019-05-09T04:00:20.748Z,84.89
2019-05-09T04:02:51.458Z,84.87
2019-05-09T04:05:21.978Z,84.82
2019-05-09T04:07:52.614Z,84.79
2019-05-09T04:10:23.043Z,84.73
2019-05-09T04:12:56.597Z,84.69
2019-05-09T04:17:57.850Z,84.54
2019-05-09T04:20:28.338Z,84.47
2019-05-09T04:22:59.565Z,84.44
2019-05-09T04:25:32.577Z,84.38
2019-05-09T04:28:03.964Z,84.35
2019-05-09T04:30:34.579Z,84.20
2019-05-09T04:33:07.226Z,84.12
2019-05-09T04:35:38.271Z,84.07
2019-05-09T04:38:08.752Z,83.99
2019-05-09T04:40:44.716Z,83.92
2019-05-09T04:43:16.861Z,83.84
2019-05-09T04:45:48.964Z,83.78
2019-05-09T04:48:31.649Z,83.59
2019-05-09T04:51:03.725Z,83.53
2019-05-09T04:53:34.485Z,83.33
2019-05-09T04:56:27.978Z,83.21
2019-05-09T04:58:58.453Z,83.03
2019-05-09T05:01:44.512Z,82.86
2019-05-09T05:04:14.749Z,82.69
2019-05-09T05:06:44.914Z,82.55
2019-05-09T05:09:15.123Z,82.36
2019-05-09T05:11:47.111Z,82.09
2019-05-09T05:14:23.944Z,82.05
2019-05-09T05:16:58.256Z,81.98
2019-05-09T05:19:30.915Z,82.00
2019-05-09T05:22:07.420Z,81.96
2019-05-09T05:24:43.047Z,82.06
2019-05-09T05:27:13.334Z,81.98
2019-05-09T05:29:43.539Z,81.89
2019-05-09T05:32:19.766Z,81.84
2019-05-09T05:35:01.723Z,81.65
2019-05-09T05:37:32.086Z,81.55
2019-05-09T05:40:02.312Z,81.44
2019-05-09T05:42:32.514Z,81.30
2019-05-09T05:45:02.900Z,81.21
2019-05-09T05:47:48.546Z,81.06
2019-05-09T05:50:18.951Z,80.89
2019-05-09T05:52:49.176Z,80.71
2019-05-09T05:55:19.532Z,80.61
2019-05-09T05:57:49.664Z,80.37
2019-05-09T06:00:21.886Z,80.19
2019-05-09T06:02:52.146Z,80.07
2019-05-09T06:05:24.766Z,79.80
2019-05-09T06:07:57.457Z,79.59
2019-05-09T06:10:28.987Z,79.26
2019-05-09T06:12:59.102Z,79.01
2019-05-09T06:15:29.366Z,78.82
2019-05-09T06:17:59.554Z,78.62
2019-05-09T06:20:29.897Z,78.45
2019-05-09T06:23:00.255Z,78.23
2019-05-09T06:25:31.006Z,78.12
2019-05-09T06:28:01.251Z,77.91
2019-05-09T06:30:32.380Z,77.77
2019-05-09T06:33:05.101Z,77.60
2019-05-09T06:35:37.749Z,77.45
2019-05-09T06:38:07.925Z,77.21
2019-05-09T06:40:38.430Z,76.85
2019-05-09T06:43:18.687Z,76.82
2019-05-09T06:46:08.176Z,76.54
2019-05-09T06:48:38.656Z,76.24
2019-05-09T06:51:09.009Z,76.05
2019-05-09T06:53:39.300Z,75.74
2019-05-09T06:56:09.509Z,74.22
2019-05-09T06:58:40.047Z,74.46
2019-05-09T07:01:32.456Z,74.49
2019-05-09T07:04:09.137Z,74.60
2019-05-09T07:06:43.737Z,74.61
2019-05-09T07:09:21.264Z,74.73
2019-05-09T07:11:51.547Z,74.68
2019-05-09T07:14:32.288Z,74.50
2019-05-09T07:17:00.966Z,73.87
2019-05-09T07:19:31.308Z,73.35
2019-05-09T07:22:39.365Z,70.88
2019-05-09T07:25:43.954Z,71.14
2019-05-09T07:28:14.267Z,70.95
2019-05-09T07:31:03.738Z,70.69
2019-05-09T07:33:47.863Z,70.28
2019-05-09T07:36:18.862Z,70.17
2019-05-09T07:38:49.308Z,69.79
2019-05-09T07:41:19.517Z,69.91
2019-05-09T07:43:49.701Z,69.61
2019-05-09T07:46:28.646Z,69.30
2019-05-09T07:49:00.106Z,69.19
2019-05-09T07:51:30.434Z,69.00
2019-05-09T07:54:00.684Z,68.44
2019-05-09T07:56:30.913Z,68.13
2019-05-09T07:59:01.156Z,67.68
2019-05-09T08:01:31.536Z,67.31
2019-05-09T08:04:01.771Z,67.04
2019-05-09T08:06:32.131Z,66.44
2019-05-09T08:09:02.410Z,66.07
2019-05-09T08:11:32.603Z,65.54
2019-05-09T08:14:03.055Z,65.61
2019-05-09T08:16:33.350Z,64.97
2019-05-09T08:19:03.601Z,64.45
2019-05-09T08:21:33.921Z,63.48
2019-05-09T08:24:04.141Z,62.96
2019-05-09T08:26:34.292Z,62.65
2019-05-09T08:29:04.652Z,62.38
2019-05-09T08:31:34.784Z,61.56
2019-05-09T08:34:05.069Z,61.28
2019-05-09T08:36:35.150Z,61.04
2019-05-09T08:39:08.449Z,60.54
2019-05-09T08:41:38.731Z,60.35
2019-05-09T08:44:09.288Z,60.51
2019-05-09T08:46:39.528Z,59.83
2019-05-09T08:49:09.906Z,59.46
2019-05-09T08:52:09.192Z,59.48
2019-05-09T08:54:41.858Z,58.93
2019-05-09T08:57:12.234Z,58.88
2019-05-09T08:59:42.465Z,58.70
2019-05-09T09:02:16.523Z,58.02
2019-05-09T09:04:44.587Z,57.48
2019-05-09T09:07:14.805Z,56.68
2019-05-09T09:09:45.031Z,56.43
2019-05-09T09:12:27.140Z,56.15
2019-05-09T09:14:47.796Z,56.10
2019-05-09T09:17:18.894Z,56.34
2019-05-09T09:19:49.209Z,55.48
2019-05-09T09:22:19.428Z,54.63
2019-05-09T09:24:49.655Z,53.73
2019-05-09T09:27:19.973Z,52.84
2019-05-09T09:29:50.188Z,52.92
2019-05-09T09:32:20.426Z,52.40
2019-05-09T09:34:50.629Z,52.12
2019-05-09T09:37:20.732Z,52.44
2019-05-09T09:39:50.887Z,52.62
2019-05-09T09:42:21.237Z,51.95
2019-05-09T09:44:51.448Z,51.48
2019-05-09T09:47:23.375Z,50.56
2019-05-09T09:49:55.133Z,50.50
2019-05-09T09:52:25.545Z,49.54
2019-05-09T09:54:58.079Z,48.43
2019-05-09T09:57:28.867Z,47.74
2019-05-09T10:00:18.056Z,46.98
2019-05-09T10:02:48.358Z,46.23
2019-05-09T10:05:18.613Z,46.96
2019-05-09T10:07:48.738Z,47.37
2019-05-09T10:10:36.574Z,47.35
2019-05-09T10:13:10.489Z,46.96
2019-05-09T10:15:58.704Z,44.43
2019-05-09T10:18:50.021Z,44.61
2019-05-09T10:21:27.667Z,44.11
2019-05-09T10:23:57.906Z,44.09
2019-05-09T10:26:28.485Z,43.67
2019-05-09T10:28:58.769Z,43.56
2019-05-09T10:31:29.101Z,43.05
2019-05-09T10:33:59.230Z,42.43
2019-05-09T10:36:29.487Z,42.21
2019-05-09T10:38:59.709Z,41.61
2019-05-09T10:41:29.908Z,41.78
2019-05-09T10:44:17.868Z,41.95
2019-05-09T10:46:57.765Z,41.77
2019-05-09T10:49:24.399Z,41.02
2019-05-09T10:51:54.592Z,41.28
2019-05-09T10:54:24.689Z,40.64
2019-05-09T10:56:54.812Z,40.29
2019-05-09T10:59:24.932Z,39.77
2019-05-09T11:01:57.720Z,40.15
2019-05-09T11:04:28.777Z,40.31
2019-05-09T11:06:59.048Z,40.21
2019-05-09T11:09:29.360Z,40.58
2019-05-09T11:12:01.213Z,40.90
2019-05-09T11:14:36.847Z,41.18
2019-05-09T11:17:10.659Z,41.18
2019-05-09T11:19:35.607Z,41.44
2019-05-09T11:22:08.036Z,40.97
2019-05-09T11:24:45.703Z,40.87
2019-05-09T11:27:10.495Z,40.75
2019-05-09T11:29:40.637Z,39.64
2019-05-09T11:32:10.782Z,39.20
2019-05-09T11:34:41.122Z,39.01
2019-05-09T11:37:11.288Z,39.37
2019-05-09T11:39:42.381Z,38.98
2019-05-09T11:42:12.672Z,39.11
2019-05-09T11:44:42.848Z,39.13
2019-05-09T11:47:31.450Z,40.13
2019-05-09T11:49:47.911Z,39.70
2019-05-09T11:52:18.331Z,39.54
2019-05-09T11:54:48.721Z,39.30
2019-05-09T11:57:19.279Z,38.71
2019-05-09T11:59:49.493Z,38.61
2019-05-09T12:02:19.680Z,38.73
2019-05-09T12:04:49.775Z,38.78
2019-05-09T12:07:19.892Z,37.58
2019-05-09T12:09:50.039Z,36.70
2019-05-09T12:12:20.263Z,35.13
2019-05-09T12:14:50.519Z,34.28
2019-05-09T12:17:20.633Z,33.73
2019-05-09T12:19:50.759Z,33.96
2019-05-09T12:22:20.902Z,34.95
2019-05-09T12:24:53.876Z,35.47
2019-05-09T12:27:22.744Z,36.39
2019-05-09T12:29:52.821Z,36.30
2019-05-09T12:32:22.995Z,34.92
2019-05-09T12:34:53.108Z,33.64
2019-05-09T12:37:23.284Z,33.26
2019-05-09T12:39:53.619Z,33.57
2019-05-09T12:42:23.760Z,34.69
2019-05-09T12:44:53.912Z,34.53
2019-05-09T12:47:24.163Z,34.42
2019-05-09T12:49:54.218Z,35.04
2019-05-09T12:52:24.336Z,35.12
2019-05-09T12:54:54.524Z,35.42
2019-05-09T12:57:24.671Z,36.04
2019-05-09T12:59:54.729Z,36.13
2019-05-09T13:02:24.897Z,36.34
2019-05-09T13:04:54.961Z,36.87
2019-05-09T13:07:25.195Z,36.81
2019-05-09T13:09:58.073Z,35.66
2019-05-09T13:12:29.124Z,33.63
2019-05-09T13:14:59.273Z,31.95
2019-05-09T13:17:48.259Z,31.56
2019-05-09T13:20:19.139Z,31.30
2019-05-09T13:22:49.463Z,30.39
2019-05-09T13:25:19.624Z,29.51
2019-05-09T13:27:52.735Z,28.11
2019-05-09T13:30:21.889Z,27.26
2019-05-09T13:32:52.198Z,25.47
2019-05-09T13:35:22.363Z,25.86
2019-05-09T13:37:52.604Z,27.17
2019-05-09T13:40:22.937Z,28.46
2019-05-09T13:42:53.233Z,30.17
2019-05-09T13:45:23.516Z,31.56
2019-05-09T13:47:53.739Z,32.30
2019-05-09T13:50:24.055Z,33.44
2019-05-09T13:52:54.140Z,34.29
2019-05-09T13:55:24.362Z,34.86
2019-05-09T13:57:54.815Z,35.65
2019-05-09T14:00:25.042Z,36.11
2019-05-09T14:02:55.205Z,36.42
2019-05-09T14:05:25.493Z,36.71
2019-05-09T14:08:01.364Z,37.20
2019-05-09T14:10:28.989Z,37.56
2019-05-09T14:13:06.871Z,38.25
2019-05-09T14:15:31.354Z,39.23
2019-05-09T14:18:01.575Z,39.98
2019-05-09T14:20:31.723Z,40.48
2019-05-09T14:23:01.852Z,40.94
2019-05-09T14:25:32.149Z,41.33
2019-05-09T14:28:02.529Z,41.97
2019-05-09T14:30:32.990Z,42.19
2019-05-09T14:33:03.229Z,42.27
2019-05-09T14:35:33.529Z,41.82
2019-05-09T14:38:04.179Z,41.68
2019-05-09T14:40:34.408Z,41.90
2019-05-09T14:43:04.766Z,42.38
2019-05-09T14:45:35.036Z,42.82
2019-05-09T14:48:07.820Z,43.37
2019-05-09T14:50:38.165Z,44.13
2019-05-09T14:53:08.846Z,45.08
2019-05-09T14:55:42.824Z,46.65
2019-05-09T14:58:11.133Z,47.67
2019-05-09T15:00:41.386Z,48.55
2019-05-09T15:03:11.624Z,49.28
2019-05-09T15:05:41.711Z,49.82
2019-05-09T15:08:11.864Z,50.06
2019-05-09T15:10:42.200Z,49.59
2019-05-09T15:13:12.468Z,47.08
2019-05-09T15:15:42.751Z,41.13
2019-05-09T15:18:13.072Z,39.27
2019-05-09T15:20:43.425Z,39.78
2019-05-09T15:23:13.627Z,39.70
2019-05-09T15:25:43.912Z,39.84
2019-05-09T15:28:14.148Z,36.77
2019-05-09T15:30:44.635Z,35.86
2019-05-09T15:33:14.794Z,36.23
2019-05-09T15:35:45.086Z,36.58
2019-05-09T15:38:17.945Z,33.96
2019-05-09T15:40:48.160Z,30.88
2019-05-09T15:43:18.758Z,29.65
2019-05-09T15:45:58.230Z,30.90
2019-05-09T15:48:28.665Z,32.62
2019-05-09T15:50:59.119Z,34.30
2019-05-09T15:53:29.373Z,35.36
2019-05-09T15:55:59.606Z,36.48
2019-05-09T15:58:29.927Z,36.88
2019-05-09T16:01:00.065Z,37.00
2019-05-09T16:03:30.455Z,37.46
2019-05-09T16:06:00.723Z,38.46
2019-05-09T16:08:31.294Z,39.85
2019-05-09T16:11:01.873Z,41.05
2019-05-09T16:13:32.298Z,41.96
2019-05-09T16:16:02.903Z,42.81
2019-05-09T16:18:33.267Z,43.81
2019-05-09T16:21:03.792Z,44.59
2019-05-09T16:23:34.481Z,45.32
2019-05-09T16:26:07.294Z,45.95
2019-05-09T16:31:30.736Z,47.50
2019-05-09T16:34:01.435Z,47.61
2019-05-09T16:36:31.902Z,48.04
2019-05-09T16:39:07.639Z,48.65
2019-05-09T16:41:39.123Z,49.17
2019-05-09T16:44:09.877Z,49.79
2019-05-09T16:46:40.308Z,50.61
2019-05-09T16:49:11.860Z,52.13
2019-05-09T16:51:42.297Z,53.73
2019-05-09T16:54:12.690Z,55.75
2019-05-09T16:56:43.026Z,57.52
2019-05-09T16:59:13.293Z,58.70
2019-05-09T17:01:49.304Z,59.32
2019-05-09T17:04:19.249Z,59.97
2019-05-09T17:06:49.724Z,60.42
2019-05-09T17:09:20.404Z,61.01
2019-05-09T17:11:50.717Z,61.64
2019-05-09T17:14:21.097Z,62.20
2019-05-09T17:16:52.900Z,62.42
2019-05-09T17:19:23.357Z,62.46
2019-05-09T17:22:07.713Z,62.29
2019-05-09T17:24:40.051Z,62.03
2019-05-09T17:27:10.364Z,61.38
2019-05-09T17:29:40.725Z,60.21
2019-05-09T17:32:11.380Z,58.40
2019-05-09T17:34:42.358Z,57.41
2019-05-09T17:37:48.003Z,54.60
2019-05-09T17:40:19.281Z,50.98
2019-05-09T17:42:49.776Z,47.79
2019-05-09T17:47:58.851Z,44.09
2019-05-09T17:50:29.227Z,45.09
2019-05-09T17:52:59.968Z,46.45
2019-05-09T17:55:30.691Z,47.87
2019-05-09T17:58:01.430Z,49.04
2019-05-09T18:00:32.049Z,50.30
2019-05-09T18:03:02.582Z,51.44
2019-05-09T18:05:35.865Z,52.17
2019-05-09T18:08:07.861Z,53.06
2019-05-09T18:10:38.212Z,53.98
2019-05-09T18:13:08.972Z,54.65
2019-05-09T18:15:39.591Z,55.26
2019-05-09T18:18:10.230Z,55.88
2019-05-09T18:20:41.138Z,56.46
2019-05-09T18:23:12.615Z,56.96
2019-05-09T18:25:43.176Z,57.45
2019-05-09T18:28:13.756Z,57.97
2019-05-09T18:33:22.053Z,59.28
2019-05-09T18:35:52.556Z,59.77
2019-05-09T18:38:31.387Z,60.19
2019-05-09T18:41:01.981Z,60.70
2019-05-09T18:43:32.518Z,61.22
2019-05-09T18:46:03.058Z,61.73
2019-05-09T18:48:34.013Z,61.83
2019-05-09T18:51:04.535Z,61.33
2019-05-09T18:53:35.217Z,60.61
2019-05-09T18:56:05.704Z,60.41
2019-05-09T18:58:36.642Z,60.31
2019-05-09T19:01:07.362Z,60.00
2019-05-09T19:03:38.060Z,60.01
2019-05-09T19:06:08.502Z,60.09
2019-05-09T19:08:40.210Z,59.97
2019-05-09T19:11:12.103Z,60.13
2019-05-09T19:13:42.582Z,60.36
2019-05-09T19:16:35.681Z,60.54
2019-05-09T19:19:22.594Z,60.68
2019-05-09T19:21:56.339Z,60.90
2019-05-09T19:24:26.847Z,61.16
2019-05-09T19:26:57.267Z,61.31
2019-05-09T19:29:27.637Z,61.45
2019-05-09T19:32:00.943Z,61.53
2019-05-09T19:34:31.348Z,61.73
2019-05-09T19:37:01.789Z,61.92
2019-05-09T19:39:32.412Z,62.33
2019-05-09T19:42:02.889Z,62.60
2019-05-09T19:44:33.412Z,63.05
2019-05-09T19:47:03.975Z,63.43
2019-05-09T19:49:34.621Z,63.86
2019-05-09T19:52:05.552Z,64.37
2019-05-09T19:54:36.233Z,64.48
2019-05-09T19:57:07.822Z,64.90
2019-05-09T19:59:38.290Z,65.25
2019-05-09T20:02:08.988Z,65.74
2019-05-09T20:04:39.450Z,66.17
2019-05-09T20:07:09.925Z,66.59
2019-05-09T20:09:52.115Z,66.85
2019-05-09T20:12:32.421Z,67.07
2019-05-09T20:15:03.031Z,67.30
2019-05-09T20:17:33.594Z,67.73
2019-05-09T20:20:04.211Z,68.18
2019-05-09T20:22:35.266Z,68.63
2019-05-09T20:25:06.150Z,69.14
2019-05-09T20:27:36.714Z,69.54
2019-05-09T20:30:08.046Z,70.03
2019-05-09T20:32:38.560Z,70.38
2019-05-09T20:35:11.007Z,71.73
2019-05-09T20:37:41.666Z,71.77
2019-05-09T20:40:12.756Z,72.01
2019-05-09T20:42:43.534Z,72.15
2019-05-09T20:45:14.509Z,72.15
2019-05-09T20:47:46.107Z,72.29
2019-05-09T20:50:17.270Z,72.56
2019-05-09T20:52:48.887Z,72.65
2019-05-09T20:55:19.527Z,72.85
2019-05-09T20:57:52.121Z,73.03
2019-05-09T21:03:15.599Z,74.00
2019-05-09T21:05:46.267Z,74.15
2019-05-09T21:08:16.732Z,74.22
2019-05-09T21:10:47.627Z,74.30
2019-05-09T21:13:18.374Z,74.18
2019-05-09T21:15:49.249Z,74.28
2019-05-09T21:18:19.956Z,74.27
2019-05-09T21:20:51.822Z,74.26
2019-05-09T21:23:24.859Z,74.31
2019-05-09T21:25:54.481Z,74.36
2019-05-09T21:28:25.043Z,74.34
2019-05-09T21:30:55.493Z,74.41
2019-05-09T21:33:25.965Z,74.41
2019-05-09T21:35:56.212Z,74.27
2019-05-09T21:38:26.410Z,74.40
2019-05-09T21:43:27.793Z,74.81
2019-05-09T21:45:58.030Z,74.78
2019-05-09T21:48:28.309Z,74.62
2019-05-09T21:50:58.626Z,74.48
2019-05-09T21:53:40.315Z,74.37
2019-05-09T21:56:00.914Z,74.30
2019-05-09T21:58:31.207Z,74.34
2019-05-09T22:01:01.994Z,74.24
2019-05-09T22:03:35.124Z,74.14
2019-05-09T22:06:05.766Z,74.10
2019-05-09T22:08:36.635Z,74.22
2019-05-09T22:11:07.140Z,74.05
2019-05-09T22:13:37.982Z,73.93
2019-05-09T22:16:09.020Z,73.82
2019-05-09T22:18:39.930Z,73.88
2019-05-09T22:21:12.322Z,74.09
2019-05-09T22:23:55.349Z,73.97
2019-05-09T22:26:16.352Z,74.28
2019-05-09T22:28:46.772Z,74.30
2019-05-09T22:31:17.038Z,74.27
2019-05-09T22:33:47.235Z,74.20
2019-05-09T22:36:17.497Z,74.16
2019-05-09T22:38:47.755Z,74.20
2019-05-09T22:41:18.055Z,74.22
2019-05-09T22:43:48.349Z,74.26
2019-05-09T22:46:18.649Z,74.24
2019-05-09T22:48:48.927Z,74.30
2019-05-09T22:51:19.219Z,74.44
2019-05-09T22:53:49.527Z,74.55
2019-05-09T22:56:19.820Z,74.67
2019-05-09T22:58:50.246Z,74.77
2019-05-09T23:01:20.545Z,74.91
2019-05-09T23:03:50.791Z,75.03
2019-05-09T23:06:21.343Z,75.17
2019-05-09T23:08:51.757Z,75.29
2019-05-09T23:11:22.090Z,75.38
2019-05-09T23:13:52.356Z,75.47
2019-05-09T23:16:28.523Z,75.53
2019-05-09T23:18:58.752Z,75.54
2019-05-09T23:21:29.736Z,75.58
2019-05-09T23:24:10.815Z,75.56
2019-05-09T23:26:41.036Z,75.57
2019-05-09T23:29:11.194Z,75.51
2019-05-09T23:31:52.853Z,75.46
2019-05-09T23:34:23.111Z,75.45
2019-05-09T23:36:53.300Z,75.41
2019-05-09T23:39:25.526Z,75.41
2019-05-09T23:41:55.856Z,75.40
2019-05-09T23:44:25.999Z,75.38
2019-05-09T23:46:56.207Z,75.42
2019-05-09T23:49:26.279Z,75.59
2019-05-09T23:51:58.790Z,75.68
2019-05-09T23:54:47.653Z,75.65
2019-05-09T23:57:35.686Z,75.65
